sensor_id;sensor_type;location;lat;lon;timestamp;P1;durP1;ratioP1;P2;durP2;ratioP2
13487;SDS011;6816;48.506;9.050;2023-04-06T00:01:30;4.37;;;3.20;;
13487;SDS011;6816;48.506;9.050;2023-04-06T00:04:31;5.83;;;4.07;;
13487;SDS011;6816;48.506;9.050;2023-04-06T00:07:31;4.97;;;4.00;;
13487;SDS011;6816;48.506;9.050;2023-04-06T00:10:33;6.77;;;4.50;;
13487;SDS011;6816;48.506;9.050;2023-04-06T00:13:34;6.33;;;4.67;;
13487;SDS011;6816;48.506;9.050;2023-04-06T00:16:34;5.97;;;4.73;;
13487;SDS011;6816;48.506;9.050;2023-04-06T00:19:35;5.93;;;4.30;;
13487;SDS011;6816;48.506;9.050;2023-04-06T00:22:36;7.73;;;4.90;;
13487;SDS011;6816;48.506;9.050;2023-04-06T00:25:37;6.03;;;4.60;;
13487;SDS011;6816;48.506;9.050;2023-04-06T00:28:38;6.93;;;4.60;;
13487;SDS011;6816;48.506;9.050;2023-04-06T00:31:38;8.47;;;4.80;;
13487;SDS011;6816;48.506;9.050;2023-04-06T00:34:39;5.13;;;4.00;;
13487;SDS011;6816;48.506;9.050;2023-04-06T00:37:40;5.37;;;4.00;;
13487;SDS011;6816;48.506;9.050;2023-04-06T00:40:41;7.00;;;4.00;;
13487;SDS011;6816;48.506;9.050;2023-04-06T00:43:44;4.17;;;3.43;;
13487;SDS011;6816;48.506;9.050;2023-04-06T00:46:44;4.53;;;3.47;;
13487;SDS011;6816;48.506;9.050;2023-04-06T00:49:45;4.00;;;3.40;;
13487;SDS011;6816;48.506;9.050;2023-04-06T00:52:47;4.63;;;3.47;;
13487;SDS011;6816;48.506;9.050;2023-04-06T00:55:47;4.27;;;3.30;;
13487;SDS011;6816;48.506;9.050;2023-04-06T00:58:48;4.67;;;3.67;;
13487;SDS011;6816;48.506;9.050;2023-04-06T01:01:49;3.90;;;3.50;;
13487;SDS011;6816;48.506;9.050;2023-04-06T01:04:51;4.50;;;3.67;;
13487;SDS011;6816;48.506;9.050;2023-04-06T01:07:52;5.33;;;3.87;;
13487;SDS011;6816;48.506;9.050;2023-04-06T01:10:53;11.27;;;4.00;;
13487;SDS011;6816;48.506;9.050;2023-04-06T01:13:54;4.10;;;3.40;;
13487;SDS011;6816;48.506;9.050;2023-04-06T01:16:58;4.83;;;3.30;;
13487;SDS011;6816;48.506;9.050;2023-04-06T01:20:00;4.33;;;3.60;;
13487;SDS011;6816;48.506;9.050;2023-04-06T01:23:01;4.17;;;3.40;;
13487;SDS011;6816;48.506;9.050;2023-04-06T01:26:02;5.50;;;4.10;;
13487;SDS011;6816;48.506;9.050;2023-04-06T01:29:02;4.77;;;3.80;;
13487;SDS011;6816;48.506;9.050;2023-04-06T01:32:03;4.73;;;3.73;;
13487;SDS011;6816;48.506;9.050;2023-04-06T01:35:04;5.10;;;3.70;;
13487;SDS011;6816;48.506;9.050;2023-04-06T01:38:05;5.47;;;3.73;;
13487;SDS011;6816;48.506;9.050;2023-04-06T01:41:06;4.90;;;3.57;;
13487;SDS011;6816;48.506;9.050;2023-04-06T01:44:06;5.60;;;3.93;;
13487;SDS011;6816;48.506;9.050;2023-04-06T01:47:07;5.80;;;3.93;;
13487;SDS011;6816;48.506;9.050;2023-04-06T01:50:08;5.23;;;4.10;;
13487;SDS011;6816;48.506;9.050;2023-04-06T01:53:09;5.23;;;3.90;;
13487;SDS011;6816;48.506;9.050;2023-04-06T01:56:10;5.70;;;4.13;;
13487;SDS011;6816;48.506;9.050;2023-04-06T01:59:10;6.33;;;4.20;;
13487;SDS011;6816;48.506;9.050;2023-04-06T02:02:11;4.97;;;3.87;;
13487;SDS011;6816;48.506;9.050;2023-04-06T02:05:12;7.57;;;4.20;;
13487;SDS011;6816;48.506;9.050;2023-04-06T02:08:13;5.17;;;4.23;;
13487;SDS011;6816;48.506;9.050;2023-04-06T02:11:14;5.20;;;4.40;;
13487;SDS011;6816;48.506;9.050;2023-04-06T02:14:15;5.03;;;4.07;;
13487;SDS011;6816;48.506;9.050;2023-04-06T02:17:15;5.50;;;4.10;;
13487;SDS011;6816;48.506;9.050;2023-04-06T02:20:16;5.70;;;4.37;;
13487;SDS011;6816;48.506;9.050;2023-04-06T02:23:17;5.20;;;4.37;;
13487;SDS011;6816;48.506;9.050;2023-04-06T02:26:17;5.57;;;4.20;;
13487;SDS011;6816;48.506;9.050;2023-04-06T02:29:18;5.77;;;4.27;;
13487;SDS011;6816;48.506;9.050;2023-04-06T02:32:20;6.87;;;4.80;;
13487;SDS011;6816;48.506;9.050;2023-04-06T02:35:20;8.47;;;4.40;;
13487;SDS011;6816;48.506;9.050;2023-04-06T02:38:21;5.97;;;4.07;;
13487;SDS011;6816;48.506;9.050;2023-04-06T02:41:22;6.00;;;4.83;;
13487;SDS011;6816;48.506;9.050;2023-04-06T02:44:22;6.47;;;4.60;;
13487;SDS011;6816;48.506;9.050;2023-04-06T02:47:23;5.30;;;4.37;;
13487;SDS011;6816;48.506;9.050;2023-04-06T02:50:24;5.90;;;4.57;;
13487;SDS011;6816;48.506;9.050;2023-04-06T02:53:24;6.70;;;4.40;;
13487;SDS011;6816;48.506;9.050;2023-04-06T02:56:26;6.10;;;4.67;;
13487;SDS011;6816;48.506;9.050;2023-04-06T02:59:26;4.90;;;3.90;;
13487;SDS011;6816;48.506;9.050;2023-04-06T03:02:27;5.47;;;4.50;;
13487;SDS011;6816;48.506;9.050;2023-04-06T03:05:28;8.20;;;4.83;;
13487;SDS011;6816;48.506;9.050;2023-04-06T03:08:28;6.90;;;4.93;;
13487;SDS011;6816;48.506;9.050;2023-04-06T03:11:29;5.97;;;4.37;;
13487;SDS011;6816;48.506;9.050;2023-04-06T03:14:30;6.53;;;4.80;;
13487;SDS011;6816;48.506;9.050;2023-04-06T03:17:30;8.37;;;4.97;;
13487;SDS011;6816;48.506;9.050;2023-04-06T03:20:31;4.77;;;4.00;;
13487;SDS011;6816;48.506;9.050;2023-04-06T03:23:32;5.97;;;4.37;;
13487;SDS011;6816;48.506;9.050;2023-04-06T03:26:32;4.87;;;4.30;;
13487;SDS011;6816;48.506;9.050;2023-04-06T03:29:33;6.53;;;4.23;;
13487;SDS011;6816;48.506;9.050;2023-04-06T03:32:34;6.50;;;4.73;;
13487;SDS011;6816;48.506;9.050;2023-04-06T03:35:35;6.00;;;4.40;;
13487;SDS011;6816;48.506;9.050;2023-04-06T03:38:36;5.37;;;4.53;;
13487;SDS011;6816;48.506;9.050;2023-04-06T03:41:37;6.00;;;4.80;;
13487;SDS011;6816;48.506;9.050;2023-04-06T03:44:38;6.03;;;4.93;;
13487;SDS011;6816;48.506;9.050;2023-04-06T03:47:38;7.70;;;4.83;;
13487;SDS011;6816;48.506;9.050;2023-04-06T03:50:39;7.90;;;4.80;;
13487;SDS011;6816;48.506;9.050;2023-04-06T03:53:41;7.57;;;4.83;;
13487;SDS011;6816;48.506;9.050;2023-04-06T03:56:41;6.60;;;4.80;;
13487;SDS011;6816;48.506;9.050;2023-04-06T03:59:42;6.03;;;4.63;;
13487;SDS011;6816;48.506;9.050;2023-04-06T04:02:43;6.93;;;4.90;;
13487;SDS011;6816;48.506;9.050;2023-04-06T04:05:43;6.47;;;4.70;;
13487;SDS011;6816;48.506;9.050;2023-04-06T04:08:44;6.00;;;4.70;;
13487;SDS011;6816;48.506;9.050;2023-04-06T04:11:45;6.60;;;4.73;;
13487;SDS011;6816;48.506;9.050;2023-04-06T04:14:45;6.57;;;5.00;;
13487;SDS011;6816;48.506;9.050;2023-04-06T04:17:46;6.50;;;5.03;;
13487;SDS011;6816;48.506;9.050;2023-04-06T04:20:49;6.20;;;5.03;;
13487;SDS011;6816;48.506;9.050;2023-04-06T04:23:49;10.07;;;5.07;;
13487;SDS011;6816;48.506;9.050;2023-04-06T04:26:50;6.90;;;5.43;;
13487;SDS011;6816;48.506;9.050;2023-04-06T04:29:51;6.93;;;4.70;;
13487;SDS011;6816;48.506;9.050;2023-04-06T04:32:51;7.13;;;5.10;;
13487;SDS011;6816;48.506;9.050;2023-04-06T04:35:52;6.97;;;5.17;;
13487;SDS011;6816;48.506;9.050;2023-04-06T04:38:53;6.67;;;4.83;;
13487;SDS011;6816;48.506;9.050;2023-04-06T04:41:53;6.67;;;5.23;;
13487;SDS011;6816;48.506;9.050;2023-04-06T04:44:54;7.57;;;5.27;;
13487;SDS011;6816;48.506;9.050;2023-04-06T04:47:55;6.80;;;5.13;;
13487;SDS011;6816;48.506;9.050;2023-04-06T04:50:55;7.03;;;4.70;;
13487;SDS011;6816;48.506;9.050;2023-04-06T04:53:56;8.23;;;5.57;;
13487;SDS011;6816;48.506;9.050;2023-04-06T04:56:57;7.10;;;5.67;;
13487;SDS011;6816;48.506;9.050;2023-04-06T04:59:58;7.43;;;5.37;;
13487;SDS011;6816;48.506;9.050;2023-04-06T05:02:59;7.80;;;5.47;;
13487;SDS011;6816;48.506;9.050;2023-04-06T05:05:59;6.43;;;5.10;;
13487;SDS011;6816;48.506;9.050;2023-04-06T05:09:00;7.57;;;5.37;;
13487;SDS011;6816;48.506;9.050;2023-04-06T05:12:01;7.73;;;5.23;;
13487;SDS011;6816;48.506;9.050;2023-04-06T05:15:02;7.13;;;5.23;;
13487;SDS011;6816;48.506;9.050;2023-04-06T05:18:03;7.17;;;5.07;;
13487;SDS011;6816;48.506;9.050;2023-04-06T05:21:04;8.37;;;6.07;;
13487;SDS011;6816;48.506;9.050;2023-04-06T05:24:05;7.70;;;5.50;;
13487;SDS011;6816;48.506;9.050;2023-04-06T05:27:06;10.23;;;5.73;;
13487;SDS011;6816;48.506;9.050;2023-04-06T05:30:07;8.83;;;5.30;;
13487;SDS011;6816;48.506;9.050;2023-04-06T05:33:09;9.13;;;5.97;;
13487;SDS011;6816;48.506;9.050;2023-04-06T05:36:10;9.07;;;4.87;;
13487;SDS011;6816;48.506;9.050;2023-04-06T05:39:13;8.00;;;6.10;;
13487;SDS011;6816;48.506;9.050;2023-04-06T05:42:13;11.03;;;5.90;;
13487;SDS011;6816;48.506;9.050;2023-04-06T05:45:15;9.00;;;5.47;;
13487;SDS011;6816;48.506;9.050;2023-04-06T05:48:18;7.63;;;5.90;;
13487;SDS011;6816;48.506;9.050;2023-04-06T05:51:19;8.20;;;5.40;;
13487;SDS011;6816;48.506;9.050;2023-04-06T05:54:20;6.83;;;5.33;;
13487;SDS011;6816;48.506;9.050;2023-04-06T05:57:21;6.83;;;5.30;;
13487;SDS011;6816;48.506;9.050;2023-04-06T06:00:22;8.27;;;6.03;;
13487;SDS011;6816;48.506;9.050;2023-04-06T06:03:22;9.17;;;6.03;;
13487;SDS011;6816;48.506;9.050;2023-04-06T06:06:23;11.23;;;5.87;;
13487;SDS011;6816;48.506;9.050;2023-04-06T06:09:24;5.77;;;4.93;;
13487;SDS011;6816;48.506;9.050;2023-04-06T06:12:25;6.23;;;5.60;;
13487;SDS011;6816;48.506;9.050;2023-04-06T06:15:25;5.80;;;5.30;;
13487;SDS011;6816;48.506;9.050;2023-04-06T06:18:26;6.23;;;5.47;;
13487;SDS011;6816;48.506;9.050;2023-04-06T06:21:27;7.00;;;5.73;;
13487;SDS011;6816;48.506;9.050;2023-04-06T06:24:27;8.90;;;5.83;;
13487;SDS011;6816;48.506;9.050;2023-04-06T06:27:31;9.60;;;5.53;;
13487;SDS011;6816;48.506;9.050;2023-04-06T06:30:32;8.37;;;5.50;;
13487;SDS011;6816;48.506;9.050;2023-04-06T06:33:32;6.83;;;5.57;;
13487;SDS011;6816;48.506;9.050;2023-04-06T06:36:33;6.13;;;5.53;;
13487;SDS011;6816;48.506;9.050;2023-04-06T06:39:35;6.70;;;5.83;;
13487;SDS011;6816;48.506;9.050;2023-04-06T06:42:35;6.73;;;5.57;;
13487;SDS011;6816;48.506;9.050;2023-04-06T06:45:37;5.97;;;5.10;;
13487;SDS011;6816;48.506;9.050;2023-04-06T06:48:37;9.27;;;5.83;;
13487;SDS011;6816;48.506;9.050;2023-04-06T06:51:38;6.43;;;5.60;;
13487;SDS011;6816;48.506;9.050;2023-04-06T06:54:39;7.27;;;6.13;;
13487;SDS011;6816;48.506;9.050;2023-04-06T06:57:39;7.93;;;5.67;;
13487;SDS011;6816;48.506;9.050;2023-04-06T07:00:42;6.50;;;5.33;;
13487;SDS011;6816;48.506;9.050;2023-04-06T07:03:42;9.23;;;6.13;;
13487;SDS011;6816;48.506;9.050;2023-04-06T07:06:43;6.77;;;5.60;;
13487;SDS011;6816;48.506;9.050;2023-04-06T07:09:44;7.07;;;5.70;;
13487;SDS011;6816;48.506;9.050;2023-04-06T07:12:44;8.50;;;5.93;;
13487;SDS011;6816;48.506;9.050;2023-04-06T07:15:46;6.20;;;5.60;;
13487;SDS011;6816;48.506;9.050;2023-04-06T07:18:46;7.20;;;5.77;;
13487;SDS011;6816;48.506;9.050;2023-04-06T07:21:48;7.33;;;6.40;;
13487;SDS011;6816;48.506;9.050;2023-04-06T07:24:49;6.53;;;5.80;;
13487;SDS011;6816;48.506;9.050;2023-04-06T07:27:50;8.60;;;5.60;;
13487;SDS011;6816;48.506;9.050;2023-04-06T07:30:51;6.57;;;5.73;;
13487;SDS011;6816;48.506;9.050;2023-04-06T07:33:51;8.07;;;6.03;;
13487;SDS011;6816;48.506;9.050;2023-04-06T07:36:52;7.47;;;5.83;;
13487;SDS011;6816;48.506;9.050;2023-04-06T07:39:53;6.10;;;5.50;;
13487;SDS011;6816;48.506;9.050;2023-04-06T07:42:54;7.67;;;6.17;;
13487;SDS011;6816;48.506;9.050;2023-04-06T07:45:55;7.87;;;5.83;;
13487;SDS011;6816;48.506;9.050;2023-04-06T07:48:59;6.53;;;5.67;;
13487;SDS011;6816;48.506;9.050;2023-04-06T07:52:03;7.57;;;5.73;;
13487;SDS011;6816;48.506;9.050;2023-04-06T07:55:04;6.13;;;5.53;;
13487;SDS011;6816;48.506;9.050;2023-04-06T07:58:05;7.53;;;5.57;;
13487;SDS011;6816;48.506;9.050;2023-04-06T08:01:06;6.57;;;5.93;;
13487;SDS011;6816;48.506;9.050;2023-04-06T08:04:07;6.40;;;5.70;;
13487;SDS011;6816;48.506;9.050;2023-04-06T08:07:08;6.87;;;5.97;;
13487;SDS011;6816;48.506;9.050;2023-04-06T08:10:08;7.97;;;6.40;;
13487;SDS011;6816;48.506;9.050;2023-04-06T08:13:09;9.63;;;6.47;;
13487;SDS011;6816;48.506;9.050;2023-04-06T08:16:10;6.70;;;5.73;;
13487;SDS011;6816;48.506;9.050;2023-04-06T08:19:11;7.20;;;5.97;;
13487;SDS011;6816;48.506;9.050;2023-04-06T08:22:11;6.90;;;5.70;;
13487;SDS011;6816;48.506;9.050;2023-04-06T08:25:12;7.40;;;6.10;;
13487;SDS011;6816;48.506;9.050;2023-04-06T08:28:13;6.77;;;5.50;;
13487;SDS011;6816;48.506;9.050;2023-04-06T08:31:13;7.60;;;5.43;;
13487;SDS011;6816;48.506;9.050;2023-04-06T08:34:14;6.83;;;6.03;;
13487;SDS011;6816;48.506;9.050;2023-04-06T08:37:15;7.83;;;6.40;;
13487;SDS011;6816;48.506;9.050;2023-04-06T08:40:16;7.50;;;6.70;;
13487;SDS011;6816;48.506;9.050;2023-04-06T08:43:16;6.50;;;5.77;;
13487;SDS011;6816;48.506;9.050;2023-04-06T08:46:20;6.27;;;5.63;;
13487;SDS011;6816;48.506;9.050;2023-04-06T08:49:21;7.20;;;5.53;;
13487;SDS011;6816;48.506;9.050;2023-04-06T08:52:22;6.43;;;5.80;;
13487;SDS011;6816;48.506;9.050;2023-04-06T08:55:25;7.50;;;5.40;;
13487;SDS011;6816;48.506;9.050;2023-04-06T08:58:26;5.80;;;5.10;;
13487;SDS011;6816;48.506;9.050;2023-04-06T09:01:30;7.60;;;6.17;;
13487;SDS011;6816;48.506;9.050;2023-04-06T09:04:33;9.07;;;6.03;;
13487;SDS011;6816;48.506;9.050;2023-04-06T09:07:36;6.77;;;6.07;;
13487;SDS011;6816;48.506;9.050;2023-04-06T09:10:40;6.53;;;5.70;;
13487;SDS011;6816;48.506;9.050;2023-04-06T09:13:51;5.97;;;5.30;;
13487;SDS011;6816;48.506;9.050;2023-04-06T09:16:54;6.40;;;5.70;;
13487;SDS011;6816;48.506;9.050;2023-04-06T09:19:55;8.67;;;5.97;;
13487;SDS011;6816;48.506;9.050;2023-04-06T09:22:56;7.00;;;5.87;;
13487;SDS011;6816;48.506;9.050;2023-04-06T09:26:07;6.40;;;5.70;;
13487;SDS011;6816;48.506;9.050;2023-04-06T09:29:25;9.67;;;6.30;;
13487;SDS011;6816;48.506;9.050;2023-04-06T09:32:26;6.30;;;5.60;;
13487;SDS011;6816;48.506;9.050;2023-04-06T09:35:27;6.37;;;5.77;;
13487;SDS011;6816;48.506;9.050;2023-04-06T09:38:29;6.27;;;5.67;;
13487;SDS011;6816;48.506;9.050;2023-04-06T09:41:31;7.43;;;6.00;;
13487;SDS011;6816;48.506;9.050;2023-04-06T09:44:33;7.13;;;6.43;;
13487;SDS011;6816;48.506;9.050;2023-04-06T09:47:36;6.17;;;5.57;;
13487;SDS011;6816;48.506;9.050;2023-04-06T09:50:37;6.83;;;6.13;;
13487;SDS011;6816;48.506;9.050;2023-04-06T09:53:38;7.43;;;6.10;;
13487;SDS011;6816;48.506;9.050;2023-04-06T10:00:07;5.60;;;5.00;;
13487;SDS011;6816;48.506;9.050;2023-04-06T10:03:27;7.63;;;4.70;;
13487;SDS011;6816;48.506;9.050;2023-04-06T10:06:32;5.13;;;4.40;;
13487;SDS011;6816;48.506;9.050;2023-04-06T10:09:35;4.50;;;4.10;;
13487;SDS011;6816;48.506;9.050;2023-04-06T10:12:37;4.37;;;3.97;;
13487;SDS011;6816;48.506;9.050;2023-04-06T10:15:39;5.13;;;4.50;;
13487;SDS011;6816;48.506;9.050;2023-04-06T10:18:43;4.63;;;4.13;;
13487;SDS011;6816;48.506;9.050;2023-04-06T10:21:48;4.78;;;4.28;;
13487;SDS011;6816;48.506;9.050;2023-04-06T10:24:53;5.10;;;4.60;;
13487;SDS011;6816;48.506;9.050;2023-04-06T10:28:06;5.13;;;4.50;;
13487;SDS011;6816;48.506;9.050;2023-04-06T10:31:08;5.27;;;4.40;;
13487;SDS011;6816;48.506;9.050;2023-04-06T10:34:09;5.13;;;4.63;;
13487;SDS011;6816;48.506;9.050;2023-04-06T10:37:14;5.15;;;4.43;;
13487;SDS011;6816;48.506;9.050;2023-04-06T10:40:22;5.22;;;4.65;;
13487;SDS011;6816;48.506;9.050;2023-04-06T10:43:27;5.32;;;4.82;;
13487;SDS011;6816;48.506;9.050;2023-04-06T10:46:34;4.88;;;4.43;;
13487;SDS011;6816;48.506;9.050;2023-04-06T10:49:35;5.20;;;4.75;;
13487;SDS011;6816;48.506;9.050;2023-04-06T10:52:36;5.32;;;4.88;;
13487;SDS011;6816;48.506;9.050;2023-04-06T10:55:38;5.35;;;4.85;;
13487;SDS011;6816;48.506;9.050;2023-04-06T10:58:52;5.28;;;4.82;;
13487;SDS011;6816;48.506;9.050;2023-04-06T11:01:55;5.18;;;4.47;;
13487;SDS011;6816;48.506;9.050;2023-04-06T11:04:56;4.43;;;4.03;;
13487;SDS011;6816;48.506;9.050;2023-04-06T11:07:57;4.60;;;4.20;;
13487;SDS011;6816;48.506;9.050;2023-04-06T11:11:08;3.60;;;3.30;;
13487;SDS011;6816;48.506;9.050;2023-04-06T11:14:16;4.03;;;3.65;;
13487;SDS011;6816;48.506;9.050;2023-04-06T11:17:16;3.65;;;3.35;;
13487;SDS011;6816;48.506;9.050;2023-04-06T11:20:25;3.20;;;2.90;;
13487;SDS011;6816;48.506;9.050;2023-04-06T11:23:26;3.90;;;3.30;;
13487;SDS011;6816;48.506;9.050;2023-04-06T11:26:27;3.92;;;3.53;;
13487;SDS011;6816;48.506;9.050;2023-04-06T11:29:28;3.15;;;2.85;;
13487;SDS011;6816;48.506;9.050;2023-04-06T11:32:29;3.63;;;3.00;;
13487;SDS011;6816;48.506;9.050;2023-04-06T11:35:43;3.45;;;3.15;;
13487;SDS011;6816;48.506;9.050;2023-04-06T11:38:44;3.50;;;3.20;;
13487;SDS011;6816;48.506;9.050;2023-04-06T11:41:48;4.07;;;3.08;;
13487;SDS011;6816;48.506;9.050;2023-04-06T11:44:51;3.42;;;3.13;;
13487;SDS011;6816;48.506;9.050;2023-04-06T11:47:59;4.15;;;3.67;;
13487;SDS011;6816;48.506;9.050;2023-04-06T11:51:01;4.40;;;3.60;;
13487;SDS011;6816;48.506;9.050;2023-04-06T11:54:01;3.88;;;3.50;;
13487;SDS011;6816;48.506;9.050;2023-04-06T11:57:05;4.95;;;3.50;;
13487;SDS011;6816;48.506;9.050;2023-04-06T12:00:08;3.60;;;3.28;;
13487;SDS011;6816;48.506;9.050;2023-04-06T12:03:10;3.67;;;3.38;;
13487;SDS011;6816;48.506;9.050;2023-04-06T12:06:14;3.63;;;3.20;;
13487;SDS011;6816;48.506;9.050;2023-04-06T12:09:15;3.80;;;3.50;;
13487;SDS011;6816;48.506;9.050;2023-04-06T12:12:17;3.83;;;3.53;;
13487;SDS011;6816;48.506;9.050;2023-04-06T12:15:18;3.85;;;3.30;;
13487;SDS011;6816;48.506;9.050;2023-04-06T12:18:19;4.53;;;3.67;;
13487;SDS011;6816;48.506;9.050;2023-04-06T12:21:19;4.00;;;3.28;;
13487;SDS011;6816;48.506;9.050;2023-04-06T12:24:20;3.90;;;3.50;;
13487;SDS011;6816;48.506;9.050;2023-04-06T12:27:21;3.55;;;3.25;;
13487;SDS011;6816;48.506;9.050;2023-04-06T12:30:21;6.10;;;3.92;;
13487;SDS011;6816;48.506;9.050;2023-04-06T12:33:22;3.90;;;3.50;;
13487;SDS011;6816;48.506;9.050;2023-04-06T12:36:22;3.20;;;2.90;;
13487;SDS011;6816;48.506;9.050;2023-04-06T12:39:24;3.40;;;3.10;;
13487;SDS011;6816;48.506;9.050;2023-04-06T12:42:25;3.47;;;3.17;;
13487;SDS011;6816;48.506;9.050;2023-04-06T12:45:26;2.88;;;2.58;;
13487;SDS011;6816;48.506;9.050;2023-04-06T12:48:27;2.85;;;2.63;;
13487;SDS011;6816;48.506;9.050;2023-04-06T12:51:27;4.00;;;2.78;;
13487;SDS011;6816;48.506;9.050;2023-04-06T12:54:28;3.15;;;2.80;;
13487;SDS011;6816;48.506;9.050;2023-04-06T12:57:29;4.70;;;2.60;;
13487;SDS011;6816;48.506;9.050;2023-04-06T13:00:30;2.88;;;2.60;;
13487;SDS011;6816;48.506;9.050;2023-04-06T13:03:31;3.30;;;2.08;;
13487;SDS011;6816;48.506;9.050;2023-04-06T13:06:32;2.58;;;2.08;;
13487;SDS011;6816;48.506;9.050;2023-04-06T13:09:33;2.30;;;2.10;;
13487;SDS011;6816;48.506;9.050;2023-04-06T13:12:34;3.15;;;2.70;;
13487;SDS011;6816;48.506;9.050;2023-04-06T13:15:34;2.63;;;2.42;;
13487;SDS011;6816;48.506;9.050;2023-04-06T13:18:36;2.22;;;2.03;;
13487;SDS011;6816;48.506;9.050;2023-04-06T13:21:38;3.05;;;2.65;;
13487;SDS011;6816;48.506;9.050;2023-04-06T13:24:39;3.70;;;2.65;;
13487;SDS011;6816;48.506;9.050;2023-04-06T13:27:40;2.83;;;2.53;;
13487;SDS011;6816;48.506;9.050;2023-04-06T13:30:41;2.33;;;2.13;;
13487;SDS011;6816;48.506;9.050;2023-04-06T13:33:41;2.30;;;2.10;;
13487;SDS011;6816;48.506;9.050;2023-04-06T13:36:42;2.80;;;2.50;;
13487;SDS011;6816;48.506;9.050;2023-04-06T13:39:43;2.33;;;2.13;;
13487;SDS011;6816;48.506;9.050;2023-04-06T13:42:44;2.88;;;2.50;;
13487;SDS011;6816;48.506;9.050;2023-04-06T13:45:49;2.75;;;2.40;;
13487;SDS011;6816;48.506;9.050;2023-04-06T13:48:51;3.42;;;2.88;;
13487;SDS011;6816;48.506;9.050;2023-04-06T13:51:52;2.92;;;2.63;;
13487;SDS011;6816;48.506;9.050;2023-04-06T13:54:52;3.72;;;2.97;;
13487;SDS011;6816;48.506;9.050;2023-04-06T13:57:53;3.17;;;2.70;;
13487;SDS011;6816;48.506;9.050;2023-04-06T14:00:55;3.13;;;2.83;;
13487;SDS011;6816;48.506;9.050;2023-04-06T14:04:02;2.88;;;2.65;;
13487;SDS011;6816;48.506;9.050;2023-04-06T14:07:02;3.75;;;2.97;;
13487;SDS011;6816;48.506;9.050;2023-04-06T14:10:03;2.80;;;2.60;;
13487;SDS011;6816;48.506;9.050;2023-04-06T14:13:05;2.88;;;2.58;;
13487;SDS011;6816;48.506;9.050;2023-04-06T14:16:06;3.08;;;2.80;;
13487;SDS011;6816;48.506;9.050;2023-04-06T14:19:07;3.05;;;2.75;;
13487;SDS011;6816;48.506;9.050;2023-04-06T14:22:07;3.08;;;2.80;;
13487;SDS011;6816;48.506;9.050;2023-04-06T14:25:09;3.35;;;3.05;;
13487;SDS011;6816;48.506;9.050;2023-04-06T14:28:11;3.45;;;3.13;;
13487;SDS011;6816;48.506;9.050;2023-04-06T14:31:12;3.25;;;2.95;;
13487;SDS011;6816;48.506;9.050;2023-04-06T14:34:14;3.25;;;3.00;;
13487;SDS011;6816;48.506;9.050;2023-04-06T14:37:16;4.05;;;2.85;;
13487;SDS011;6816;48.506;9.050;2023-04-06T14:40:17;3.35;;;3.05;;
13487;SDS011;6816;48.506;9.050;2023-04-06T14:43:18;3.50;;;3.20;;
13487;SDS011;6816;48.506;9.050;2023-04-06T14:46:19;3.60;;;3.30;;
13487;SDS011;6816;48.506;9.050;2023-04-06T14:49:19;3.00;;;2.78;;
13487;SDS011;6816;48.506;9.050;2023-04-06T14:52:20;3.60;;;3.30;;
13487;SDS011;6816;48.506;9.050;2023-04-06T14:55:20;3.53;;;3.22;;
13487;SDS011;6816;48.506;9.050;2023-04-06T14:58:22;3.65;;;3.13;;
13487;SDS011;6816;48.506;9.050;2023-04-06T15:01:22;3.50;;;3.08;;
13487;SDS011;6816;48.506;9.050;2023-04-06T15:04:23;4.73;;;3.07;;
13487;SDS011;6816;48.506;9.050;2023-04-06T15:07:24;3.23;;;2.80;;
13487;SDS011;6816;48.506;9.050;2023-04-06T15:10:24;3.45;;;3.13;;
13487;SDS011;6816;48.506;9.050;2023-04-06T15:13:25;2.92;;;2.63;;
13487;SDS011;6816;48.506;9.050;2023-04-06T15:16:25;3.40;;;2.87;;
13487;SDS011;6816;48.506;9.050;2023-04-06T15:19:26;2.85;;;2.58;;
13487;SDS011;6816;48.506;9.050;2023-04-06T15:22:27;3.30;;;2.93;;
13487;SDS011;6816;48.506;9.050;2023-04-06T15:25:28;2.95;;;2.75;;
13487;SDS011;6816;48.506;9.050;2023-04-06T15:28:30;4.00;;;3.10;;
13487;SDS011;6816;48.506;9.050;2023-04-06T15:31:30;3.00;;;2.67;;
13487;SDS011;6816;48.506;9.050;2023-04-06T15:34:33;3.33;;;2.40;;
13487;SDS011;6816;48.506;9.050;2023-04-06T15:37:34;3.37;;;2.57;;
13487;SDS011;6816;48.506;9.050;2023-04-06T15:40:34;3.30;;;2.57;;
13487;SDS011;6816;48.506;9.050;2023-04-06T15:43:43;2.80;;;2.50;;
13487;SDS011;6816;48.506;9.050;2023-04-06T15:46:43;2.43;;;2.23;;
13487;SDS011;6816;48.506;9.050;2023-04-06T15:49:44;2.23;;;2.03;;
13487;SDS011;6816;48.506;9.050;2023-04-06T15:52:45;2.60;;;2.40;;
13487;SDS011;6816;48.506;9.050;2023-04-06T15:55:45;3.17;;;2.67;;
13487;SDS011;6816;48.506;9.050;2023-04-06T15:58:47;2.90;;;2.60;;
13487;SDS011;6816;48.506;9.050;2023-04-06T16:01:47;3.20;;;2.43;;
13487;SDS011;6816;48.506;9.050;2023-04-06T16:04:48;5.80;;;2.43;;
13487;SDS011;6816;48.506;9.050;2023-04-06T16:07:49;5.07;;;2.20;;
13487;SDS011;6816;48.506;9.050;2023-04-06T16:10:50;2.90;;;2.00;;
13487;SDS011;6816;48.506;9.050;2023-04-06T16:13:51;3.53;;;2.40;;
13487;SDS011;6816;48.506;9.050;2023-04-06T16:16:52;2.00;;;1.53;;
13487;SDS011;6816;48.506;9.050;2023-04-06T16:19:53;4.23;;;2.23;;
13487;SDS011;6816;48.506;9.050;2023-04-06T16:22:54;2.70;;;2.00;;
13487;SDS011;6816;48.506;9.050;2023-04-06T16:25:55;3.80;;;2.60;;
13487;SDS011;6816;48.506;9.050;2023-04-06T16:28:57;2.43;;;2.23;;
13487;SDS011;6816;48.506;9.050;2023-04-06T16:31:58;2.33;;;2.13;;
13487;SDS011;6816;48.506;9.050;2023-04-06T16:34:58;3.33;;;2.13;;
13487;SDS011;6816;48.506;9.050;2023-04-06T16:37:59;4.37;;;2.67;;
13487;SDS011;6816;48.506;9.050;2023-04-06T16:41:00;2.37;;;2.17;;
13487;SDS011;6816;48.506;9.050;2023-04-06T16:44:01;4.67;;;2.20;;
13487;SDS011;6816;48.506;9.050;2023-04-06T16:47:02;2.93;;;2.23;;
13487;SDS011;6816;48.506;9.050;2023-04-06T16:50:04;2.97;;;2.17;;
13487;SDS011;6816;48.506;9.050;2023-04-06T16:53:05;2.57;;;2.00;;
13487;SDS011;6816;48.506;9.050;2023-04-06T16:56:06;2.37;;;1.80;;
13487;SDS011;6816;48.506;9.050;2023-04-06T16:59:08;1.90;;;1.60;;
13487;SDS011;6816;48.506;9.050;2023-04-06T17:02:09;2.53;;;1.90;;
13487;SDS011;6816;48.506;9.050;2023-04-06T17:05:09;2.37;;;1.90;;
13487;SDS011;6816;48.506;9.050;2023-04-06T17:08:10;2.40;;;2.20;;
13487;SDS011;6816;48.506;9.050;2023-04-06T17:11:11;2.17;;;1.70;;
13487;SDS011;6816;48.506;9.050;2023-04-06T17:14:12;2.07;;;1.67;;
13487;SDS011;6816;48.506;9.050;2023-04-06T17:17:13;1.60;;;1.43;;
13487;SDS011;6816;48.506;9.050;2023-04-06T17:20:14;2.60;;;1.90;;
13487;SDS011;6816;48.506;9.050;2023-04-06T17:23:15;5.37;;;3.53;;
13487;SDS011;6816;48.506;9.050;2023-04-06T17:26:16;3.80;;;3.03;;
13487;SDS011;6816;48.506;9.050;2023-04-06T17:29:17;4.77;;;3.20;;
13487;SDS011;6816;48.506;9.050;2023-04-06T17:32:18;2.63;;;2.00;;
13487;SDS011;6816;48.506;9.050;2023-04-06T17:35:19;2.43;;;1.83;;
13487;SDS011;6816;48.506;9.050;2023-04-06T17:38:20;1.47;;;1.20;;
13487;SDS011;6816;48.506;9.050;2023-04-06T17:41:22;3.43;;;1.83;;
13487;SDS011;6816;48.506;9.050;2023-04-06T17:44:23;2.67;;;1.53;;
13487;SDS011;6816;48.506;9.050;2023-04-06T17:47:24;2.87;;;1.53;;
13487;SDS011;6816;48.506;9.050;2023-04-06T17:50:30;1.93;;;1.63;;
13487;SDS011;6816;48.506;9.050;2023-04-06T17:53:31;2.37;;;2.07;;
13487;SDS011;6816;48.506;9.050;2023-04-06T17:56:33;4.87;;;3.53;;
13487;SDS011;6816;48.506;9.050;2023-04-06T17:59:34;4.67;;;2.70;;
13487;SDS011;6816;48.506;9.050;2023-04-06T18:02:35;2.80;;;1.90;;
13487;SDS011;6816;48.506;9.050;2023-04-06T18:05:35;3.33;;;2.10;;
13487;SDS011;6816;48.506;9.050;2023-04-06T18:08:36;2.10;;;1.80;;
13487;SDS011;6816;48.506;9.050;2023-04-06T18:11:37;2.37;;;1.97;;
13487;SDS011;6816;48.506;9.050;2023-04-06T18:14:38;3.57;;;1.70;;
13487;SDS011;6816;48.506;9.050;2023-04-06T18:17:39;3.00;;;2.00;;
13487;SDS011;6816;48.506;9.050;2023-04-06T18:20:39;2.23;;;2.00;;
13487;SDS011;6816;48.506;9.050;2023-04-06T18:23:40;2.20;;;1.70;;
13487;SDS011;6816;48.506;9.050;2023-04-06T18:26:41;2.60;;;1.60;;
13487;SDS011;6816;48.506;9.050;2023-04-06T18:29:41;1.80;;;1.40;;
13487;SDS011;6816;48.506;9.050;2023-04-06T18:32:46;1.40;;;1.30;;